createdAt,value
2023-03-03T00:00:54.829Z,11.40
2023-03-03T00:01:54.699Z,9.90
2023-03-03T00:02:55.843Z,13.30
2023-03-03T00:03:54.681Z,9.20
2023-03-03T00:04:54.847Z,12.50
2023-03-03T00:05:54.653Z,11.60
2023-03-03T00:06:54.747Z,12.10
2023-03-03T00:07:54.627Z,10.50
2023-03-03T00:08:56.807Z,13.10
2023-03-03T00:09:54.599Z,12.70
2023-03-03T00:10:54.746Z,13.70
2023-03-03T00:11:54.584Z,12.60
2023-03-03T00:12:54.735Z,12.30
2023-03-03T00:13:54.546Z,14.90
2023-03-03T00:14:55.648Z,16.70
2023-03-03T00:15:54.549Z,12.70
2023-03-03T00:16:54.557Z,13.20
2023-03-03T00:17:54.495Z,12.50
2023-03-03T00:18:54.644Z,11.30
2023-03-03T00:19:54.504Z,12.90
2023-03-03T00:22:03.757Z,10.60
2023-03-03T00:23:03.708Z,11.40
2023-03-03T00:24:03.796Z,14.40
2023-03-03T00:25:03.684Z,12.10
2023-03-03T00:26:03.790Z,13.90
2023-03-03T00:27:03.644Z,13.20
2023-03-03T00:28:03.811Z,13.40
2023-03-03T00:29:03.639Z,13.10
2023-03-03T00:30:03.695Z,15.20
2023-03-03T00:31:03.639Z,12.20
2023-03-03T00:32:03.691Z,14.30
2023-03-03T00:33:03.576Z,13.80
2023-03-03T00:34:03.723Z,11.40
2023-03-03T00:35:03.563Z,12.40
2023-03-03T00:36:03.703Z,10.80
2023-03-03T00:37:03.516Z,11.40
2023-03-03T00:38:04.716Z,13.70
2023-03-03T00:39:03.506Z,12.40
2023-03-03T00:40:03.525Z,10.20
2023-03-03T00:41:03.471Z,12.00
2023-03-03T00:42:03.616Z,13.50
2023-03-03T00:43:03.444Z,12.80
2023-03-03T00:45:12.774Z,11.20
2023-03-03T00:46:12.701Z,11.00
2023-03-03T00:47:13.785Z,10.70
2023-03-03T00:48:12.643Z,12.90
2023-03-03T00:49:12.744Z,11.10
2023-03-03T00:50:12.625Z,12.90
2023-03-03T00:51:12.785Z,9.80
2023-03-03T00:52:12.596Z,13.50
2023-03-03T00:53:13.736Z,13.70
2023-03-03T00:54:12.571Z,11.00
2023-03-03T00:55:12.656Z,15.80
2023-03-03T00:56:12.551Z,14.80
2023-03-03T00:57:12.740Z,16.40
2023-03-03T00:58:12.521Z,13.80
2023-03-03T00:59:12.674Z,12.60
2023-03-03T01:00:12.499Z,16.70
2023-03-03T01:01:14.675Z,15.20
2023-03-03T01:02:12.464Z,17.80
2023-03-03T01:03:13.512Z,15.30
2023-03-03T01:04:12.442Z,14.40
2023-03-03T01:05:15.760Z,14.40
2023-03-03T01:06:12.423Z,14.50
2023-03-03T01:07:12.560Z,13.20
2023-03-03T01:08:12.402Z,13.80
2023-03-03T01:09:12.498Z,14.70
2023-03-03T01:10:12.379Z,18.00
2023-03-03T01:11:12.587Z,12.50
2023-03-03T01:12:12.340Z,12.80
2023-03-03T01:13:12.470Z,16.30
2023-03-03T01:14:12.362Z,12.80
2023-03-03T01:15:12.400Z,12.70
2023-03-03T01:16:12.331Z,14.20
2023-03-03T01:17:12.397Z,13.40
2023-03-03T01:18:12.278Z,13.60
2023-03-03T01:19:12.378Z,14.60
2023-03-03T01:20:12.239Z,14.60
2023-03-03T01:21:12.314Z,15.10
2023-03-03T01:22:12.228Z,12.80
2023-03-03T01:23:15.583Z,17.20
2023-03-03T01:24:12.188Z,16.30
2023-03-03T01:25:12.278Z,14.90
2023-03-03T01:26:12.165Z,14.40
2023-03-03T01:27:12.317Z,16.00
2023-03-03T01:28:12.153Z,15.20
2023-03-03T01:29:12.247Z,13.70
2023-03-03T01:30:12.104Z,14.40
2023-03-03T01:31:12.214Z,16.30
2023-03-03T01:32:12.108Z,17.20
2023-03-03T01:33:12.226Z,12.80
2023-03-03T01:34:12.077Z,13.60
2023-03-03T01:35:12.156Z,15.70
2023-03-03T01:36:12.043Z,15.30
2023-03-03T01:37:12.199Z,14.50
2023-03-03T01:38:12.007Z,15.30
2023-03-03T01:39:12.125Z,16.50
2023-03-03T01:40:12.023Z,12.10
2023-03-03T01:41:12.075Z,12.60
2023-03-03T01:42:11.954Z,16.60
2023-03-03T01:43:12.103Z,12.00
2023-03-03T01:44:11.934Z,12.50
2023-03-03T01:45:13.064Z,17.70
2023-03-03T01:46:12.034Z,14.10
2023-03-03T01:47:12.082Z,18.00
2023-03-03T01:48:11.882Z,17.90
2023-03-03T01:49:11.902Z,13.20
2023-03-03T01:50:11.859Z,13.80
2023-03-03T01:51:32.969Z,13.80
2023-03-03T01:52:11.836Z,17.50
2023-03-03T01:53:11.972Z,12.60
2023-03-03T01:54:11.804Z,16.50
2023-03-03T01:55:11.917Z,16.80
2023-03-03T01:56:11.781Z,16.40
2023-03-03T01:57:12.003Z,14.60
2023-03-03T01:58:11.752Z,14.60
2023-03-03T01:59:11.775Z,15.10
2023-03-03T02:00:11.721Z,13.80
2023-03-03T02:01:12.362Z,15.00
2023-03-03T02:02:11.743Z,16.40
2023-03-03T02:03:15.090Z,11.70
2023-03-03T02:04:11.675Z,14.20
2023-03-03T02:05:11.788Z,13.30
2023-03-03T02:06:11.649Z,15.90
2023-03-03T02:07:11.719Z,17.80
2023-03-03T02:08:11.630Z,16.50
2023-03-03T02:09:14.978Z,15.40
2023-03-03T02:10:11.598Z,16.40
2023-03-03T02:11:11.690Z,15.50
2023-03-03T02:12:11.578Z,13.80
2023-03-03T02:13:11.729Z,17.30
2023-03-03T02:14:11.579Z,14.70
2023-03-03T02:15:12.741Z,19.00
2023-03-03T02:16:11.563Z,15.50
2023-03-03T02:17:11.613Z,14.70
2023-03-03T02:18:11.502Z,14.30
2023-03-03T02:19:11.635Z,16.50
2023-03-03T02:20:11.473Z,14.90
2023-03-03T02:21:13.600Z,16.70
2023-03-03T02:22:11.452Z,17.10
2023-03-03T02:23:11.613Z,17.90
2023-03-03T02:24:11.434Z,15.70
2023-03-03T02:25:11.557Z,20.00
2023-03-03T02:26:11.413Z,27.50
2023-03-03T02:27:12.452Z,20.00
2023-03-03T02:28:11.386Z,17.50
2023-03-03T02:29:11.523Z,15.50
2023-03-03T02:30:11.352Z,17.30
2023-03-03T02:31:11.470Z,15.10
2023-03-03T02:32:11.373Z,16.40
2023-03-03T02:33:11.552Z,17.00
2023-03-03T02:34:11.304Z,17.60
2023-03-03T02:35:11.323Z,20.20
2023-03-03T02:36:11.273Z,14.60
2023-03-03T02:37:11.352Z,17.80
2023-03-03T02:38:11.251Z,14.30
2023-03-03T02:39:14.649Z,16.50
2023-03-03T02:40:11.231Z,13.90
2023-03-03T02:41:11.328Z,13.60
2023-03-03T02:42:11.208Z,14.80
2023-03-03T02:43:11.384Z,15.90
2023-03-03T02:44:11.198Z,17.00
2023-03-03T02:45:12.220Z,14.90
2023-03-03T02:46:11.159Z,14.40
2023-03-03T02:47:11.229Z,13.70
2023-03-03T02:48:11.128Z,15.50
2023-03-03T02:49:11.293Z,18.00
2023-03-03T02:50:11.118Z,14.60
2023-03-03T02:51:11.215Z,14.40
2023-03-03T02:52:11.071Z,12.00
2023-03-03T02:53:11.233Z,15.00
2023-03-03T02:54:11.043Z,16.80
2023-03-03T02:55:11.176Z,15.10
2023-03-03T02:56:11.035Z,16.00
2023-03-03T02:57:11.118Z,16.00
2023-03-03T02:58:10.995Z,15.90
2023-03-03T02:59:11.142Z,16.10
2023-03-03T03:00:11.026Z,15.30
2023-03-03T03:01:11.162Z,13.80
2023-03-03T03:02:10.973Z,11.90
2023-03-03T03:03:13.110Z,15.40
2023-03-03T03:04:10.927Z,15.20
2023-03-03T03:05:11.043Z,16.20
2023-03-03T03:06:10.894Z,14.00
2023-03-03T03:07:12.002Z,17.20
2023-03-03T03:08:10.888Z,18.00
2023-03-03T03:09:12.041Z,14.50
2023-03-03T03:10:10.838Z,15.60
2023-03-03T03:11:11.977Z,15.10
2023-03-03T03:12:10.810Z,15.80
2023-03-03T03:13:10.887Z,16.20
2023-03-03T03:14:10.816Z,15.90
2023-03-03T03:15:11.842Z,15.00
2023-03-03T03:16:10.819Z,16.70
2023-03-03T03:17:10.856Z,18.70
2023-03-03T03:18:10.743Z,16.40
2023-03-03T03:19:10.895Z,21.00
2023-03-03T03:20:10.741Z,20.80
2023-03-03T03:21:10.829Z,19.30
2023-03-03T03:22:10.687Z,16.60
2023-03-03T03:23:10.765Z,18.20
2023-03-03T03:24:10.662Z,20.60
2023-03-03T03:25:10.802Z,18.10
2023-03-03T03:26:10.672Z,16.50
2023-03-03T03:27:10.731Z,17.30
2023-03-03T03:28:10.634Z,15.80
2023-03-03T03:29:10.768Z,16.90
2023-03-03T03:30:10.593Z,16.90
2023-03-03T03:31:10.801Z,15.70
2023-03-03T03:32:10.596Z,17.30
2023-03-03T03:33:10.635Z,15.60
2023-03-03T03:34:10.551Z,16.30
2023-03-03T03:35:10.675Z,17.90
2023-03-03T03:36:10.521Z,15.60
2023-03-03T03:37:10.606Z,16.80
2023-03-03T03:38:10.513Z,16.00
2023-03-03T03:39:31.629Z,20.80
2023-03-03T03:40:10.470Z,15.90
2023-03-03T03:41:10.584Z,16.90
2023-03-03T03:42:10.433Z,17.00
2023-03-03T03:43:10.513Z,22.30
2023-03-03T03:44:10.424Z,14.80
2023-03-03T03:45:12.543Z,14.40
2023-03-03T03:46:10.409Z,18.20
2023-03-03T03:47:10.482Z,16.30
2023-03-03T03:48:10.362Z,15.80
2023-03-03T03:49:11.453Z,19.00
2023-03-03T03:50:10.417Z,17.50
2023-03-03T03:51:10.455Z,17.90
2023-03-03T03:52:10.331Z,16.90
2023-03-03T03:53:10.391Z,16.30
2023-03-03T03:54:10.283Z,17.90
2023-03-03T03:55:10.434Z,19.70
2023-03-03T03:56:10.284Z,18.10
2023-03-03T03:57:11.393Z,16.90
2023-03-03T03:58:10.234Z,17.60
2023-03-03T03:59:10.313Z,16.80
2023-03-03T04:00:10.220Z,15.60
2023-03-03T04:01:10.338Z,18.50
2023-03-03T04:02:10.331Z,17.40
2023-03-03T04:03:10.379Z,17.80
2023-03-03T04:04:10.169Z,18.40
2023-03-03T04:05:10.313Z,16.00
2023-03-03T04:06:10.147Z,15.20
2023-03-03T04:07:11.743Z,17.60
2023-03-03T04:08:10.136Z,17.30
2023-03-03T04:09:10.175Z,15.10
2023-03-03T04:10:10.097Z,17.70
2023-03-03T04:11:10.219Z,18.00
2023-03-03T04:12:10.067Z,13.60
2023-03-03T04:13:10.247Z,14.80
2023-03-03T04:14:10.056Z,15.90
2023-03-03T04:15:10.186Z,15.90
2023-03-03T04:16:10.070Z,16.80
2023-03-03T04:17:10.126Z,17.20
2023-03-03T04:18:10.002Z,16.60
2023-03-03T04:19:34.273Z,14.90
2023-03-03T04:20:09.970Z,16.50
2023-03-03T04:21:10.100Z,19.40
2023-03-03T04:22:09.947Z,18.90
2023-03-03T04:23:10.034Z,15.30
2023-03-03T04:24:09.923Z,18.40
2023-03-03T04:25:10.121Z,18.20
2023-03-03T04:26:09.894Z,15.80
2023-03-03T04:27:09.996Z,15.00
2023-03-03T04:28:09.865Z,15.40
2023-03-03T04:29:09.937Z,17.20
2023-03-03T04:30:09.835Z,26.50
2023-03-03T04:31:10.048Z,25.10
2023-03-03T04:32:09.876Z,22.30
2023-03-03T04:33:10.005Z,23.90
2023-03-03T04:34:09.785Z,26.90
2023-03-03T04:35:09.849Z,18.50
2023-03-03T04:36:09.776Z,20.30
2023-03-03T04:37:09.832Z,18.50
2023-03-03T04:38:09.744Z,23.30
2023-03-03T04:39:09.812Z,22.60
2023-03-03T04:40:09.716Z,19.30
2023-03-03T04:41:09.842Z,22.50
2023-03-03T04:42:09.692Z,26.30
2023-03-03T04:43:09.843Z,24.50
2023-03-03T04:44:09.676Z,25.00
2023-03-03T04:45:09.727Z,29.00
2023-03-03T04:46:09.677Z,30.20
2023-03-03T04:47:09.752Z,24.10
2023-03-03T04:48:09.614Z,28.70
2023-03-03T04:49:12.356Z,28.60
2023-03-03T04:50:09.622Z,25.50
2023-03-03T04:51:11.811Z,26.40
2023-03-03T04:52:09.564Z,26.80
2023-03-03T04:53:09.760Z,29.40
2023-03-03T04:54:09.541Z,28.20
2023-03-03T04:55:10.593Z,28.20
2023-03-03T04:56:09.512Z,26.90
2023-03-03T04:58:30.288Z,30.20
2023-03-03T04:59:30.065Z,30.50
2023-03-03T05:00:30.153Z,24.50
2023-03-03T05:01:30.064Z,25.50
2023-03-03T05:02:30.132Z,26.70
2023-03-03T05:03:30.002Z,28.20
2023-03-03T05:04:30.190Z,33.50
2023-03-03T05:05:29.980Z,31.40
2023-03-03T05:06:30.160Z,30.00
2023-03-03T05:07:29.957Z,29.90
2023-03-03T05:08:30.141Z,26.90
2023-03-03T05:09:29.926Z,28.60
2023-03-03T05:10:29.966Z,30.40
2023-03-03T05:11:29.924Z,26.40
2023-03-03T05:12:30.067Z,28.80
2023-03-03T05:13:29.885Z,29.60
2023-03-03T05:14:32.053Z,28.70
2023-03-03T05:15:29.912Z,27.80
2023-03-03T05:16:30.039Z,27.10
2023-03-03T05:17:29.826Z,27.30
2023-03-03T05:18:29.860Z,31.30
2023-03-03T05:19:29.910Z,29.00
2023-03-03T05:20:50.956Z,34.00
2023-03-03T05:21:29.798Z,33.80
2023-03-03T05:22:29.880Z,29.50
2023-03-03T05:23:29.784Z,27.80
2023-03-03T05:24:29.864Z,31.10
2023-03-03T05:25:29.733Z,29.20
2023-03-03T05:26:30.869Z,34.50
2023-03-03T05:27:29.700Z,27.80
2023-03-03T05:28:29.777Z,32.20
2023-03-03T05:29:29.668Z,34.50
2023-03-03T05:30:29.767Z,34.20
2023-03-03T05:31:29.773Z,33.40
2023-03-03T05:32:50.738Z,31.10
2023-03-03T05:33:29.616Z,32.00
2023-03-03T05:34:29.793Z,33.40
2023-03-03T05:35:29.649Z,33.20
2023-03-03T05:36:29.674Z,33.60
2023-03-03T05:37:29.566Z,34.00
2023-03-03T05:38:29.676Z,33.80
2023-03-03T05:39:29.607Z,38.10
2023-03-03T05:40:29.813Z,33.50
2023-03-03T05:41:29.524Z,39.00
2023-03-03T05:42:31.674Z,34.40
2023-03-03T05:43:29.501Z,36.20
2023-03-03T05:44:30.692Z,36.20
2023-03-03T05:45:29.518Z,36.80
2023-03-03T05:46:29.558Z,43.90
2023-03-03T05:47:29.443Z,56.80
2023-03-03T05:48:29.590Z,55.50
2023-03-03T05:49:29.443Z,41.80
2023-03-03T05:50:29.622Z,48.70
2023-03-03T05:51:29.484Z,41.80
2023-03-03T05:52:29.551Z,50.40
2023-03-03T05:53:29.386Z,53.80
2023-03-03T05:54:29.502Z,46.00
2023-03-03T05:55:29.351Z,45.70
2023-03-03T05:57:38.860Z,36.40
2023-03-03T05:58:38.660Z,36.20
2023-03-03T05:59:38.846Z,43.70
2023-03-03T06:00:38.630Z,40.50
2023-03-03T06:01:39.799Z,37.00
2023-03-03T06:02:38.640Z,36.90
2023-03-03T06:03:38.666Z,36.80
2023-03-03T06:04:38.595Z,34.60
2023-03-03T06:05:38.754Z,38.80
2023-03-03T06:06:38.565Z,42.40
2023-03-03T06:08:00.647Z,38.30
2023-03-03T06:08:38.540Z,43.70
2023-03-03T06:09:38.565Z,43.70
2023-03-03T06:10:38.502Z,40.10
2023-03-03T06:11:38.569Z,40.20
2023-03-03T06:12:38.474Z,38.10
2023-03-03T06:13:38.545Z,43.00
2023-03-03T06:14:38.458Z,39.50
2023-03-03T06:15:38.634Z,39.50
2023-03-03T06:16:38.493Z,39.80
2023-03-03T06:17:38.572Z,37.90
2023-03-03T06:18:38.403Z,39.40
2023-03-03T06:19:38.445Z,40.50
2023-03-03T06:20:38.375Z,41.60
2023-03-03T06:21:38.493Z,48.60
2023-03-03T06:22:38.359Z,44.00
2023-03-03T06:23:38.476Z,41.80
2023-03-03T06:24:38.324Z,39.50
2023-03-03T06:25:38.452Z,42.60
2023-03-03T06:26:38.317Z,44.70
2023-03-03T06:27:38.493Z,45.80
2023-03-03T06:28:38.290Z,44.50
2023-03-03T06:29:40.320Z,44.40
2023-03-03T06:30:38.268Z,45.40
2023-03-03T06:31:38.399Z,44.70
2023-03-03T06:32:38.264Z,43.60
2023-03-03T06:33:38.397Z,43.10
2023-03-03T06:34:38.215Z,44.60
2023-03-03T06:35:41.587Z,46.20
2023-03-03T06:36:38.185Z,46.50
2023-03-03T06:37:38.257Z,50.10
2023-03-03T06:38:38.148Z,47.90
2023-03-03T06:39:39.248Z,47.80
2023-03-03T06:40:38.145Z,44.50
2023-03-03T06:41:38.229Z,41.40
2023-03-03T06:42:38.103Z,43.40
2023-03-03T06:43:38.268Z,41.00
2023-03-03T06:44:38.079Z,41.90
2023-03-03T06:45:38.273Z,44.80
2023-03-03T06:46:38.108Z,40.00
2023-03-03T06:47:40.245Z,43.20
2023-03-03T06:48:38.034Z,45.40
2023-03-03T06:49:38.077Z,45.10
2023-03-03T06:50:38.071Z,43.00
2023-03-03T06:51:38.105Z,47.60
2023-03-03T06:52:37.990Z,49.00
2023-03-03T06:53:38.143Z,42.80
2023-03-03T06:54:37.959Z,43.90
2023-03-03T06:55:38.082Z,45.10
2023-03-03T06:56:37.961Z,45.50
2023-03-03T06:57:38.065Z,37.80
2023-03-03T06:58:37.916Z,45.80
2023-03-03T06:59:37.951Z,43.70
2023-03-03T07:00:37.872Z,45.60
2023-03-03T07:01:37.995Z,47.40
2023-03-03T07:02:37.847Z,47.90
2023-03-03T07:03:38.025Z,49.50
2023-03-03T07:04:37.913Z,53.50
2023-03-03T07:05:37.867Z,50.40
2023-03-03T07:06:37.848Z,45.20
2023-03-03T07:07:37.901Z,49.80
2023-03-03T07:08:37.776Z,48.00
2023-03-03T07:09:37.971Z,48.40
2023-03-03T07:10:37.769Z,47.30
2023-03-03T07:11:39.968Z,46.80
2023-03-03T07:12:37.724Z,49.70
2023-03-03T07:13:37.920Z,48.80
2023-03-03T07:14:37.713Z,46.40
2023-03-03T07:15:39.841Z,46.80
2023-03-03T07:16:37.728Z,47.00
2023-03-03T07:17:37.785Z,51.40
2023-03-03T07:18:37.651Z,46.00
2023-03-03T07:19:37.820Z,44.40
2023-03-03T07:20:37.624Z,48.70
2023-03-03T07:21:38.801Z,50.80
2023-03-03T07:22:37.615Z,52.00
2023-03-03T07:23:37.683Z,50.50
2023-03-03T07:24:37.572Z,47.30
2023-03-03T07:25:37.631Z,51.70
2023-03-03T07:26:37.544Z,44.00
2023-03-03T07:27:39.756Z,48.00
2023-03-03T07:28:37.550Z,48.00
2023-03-03T07:29:38.623Z,52.60
2023-03-03T07:30:37.614Z,44.50
2023-03-03T07:31:37.660Z,49.90
2023-03-03T07:32:37.473Z,46.90
2023-03-03T07:33:38.604Z,44.90
2023-03-03T07:34:37.464Z,55.70
2023-03-03T07:35:37.600Z,52.10
2023-03-03T07:36:37.425Z,46.90
2023-03-03T07:37:37.565Z,54.00
2023-03-03T07:38:37.395Z,50.60
2023-03-03T07:39:40.226Z,55.10
2023-03-03T07:40:37.404Z,54.60
2023-03-03T07:41:37.516Z,49.80
2023-03-03T07:42:37.343Z,50.90
2023-03-03T07:43:37.474Z,47.00
2023-03-03T07:44:37.322Z,50.90
2023-03-03T07:45:37.374Z,52.10
2023-03-03T07:46:37.316Z,52.60
2023-03-03T07:47:37.483Z,53.40
2023-03-03T07:48:37.261Z,53.70
2023-03-03T07:49:37.479Z,53.50
2023-03-03T07:50:37.244Z,43.40
2023-03-03T07:51:37.302Z,51.50
2023-03-03T07:52:37.251Z,51.30
2023-03-03T07:53:37.333Z,52.30
2023-03-03T07:54:37.185Z,57.10
2023-03-03T07:55:37.318Z,53.50
2023-03-03T07:56:37.173Z,55.30
2023-03-03T07:57:39.385Z,62.40
2023-03-03T07:58:37.162Z,51.80
2023-03-03T07:59:38.284Z,53.30
2023-03-03T08:00:37.144Z,48.40
2023-03-03T08:01:37.165Z,48.30
2023-03-03T08:02:37.085Z,55.90
2023-03-03T08:03:37.206Z,49.00
2023-03-03T08:04:37.232Z,49.40
2023-03-03T08:05:37.147Z,52.80
2023-03-03T08:06:37.041Z,46.90
2023-03-03T08:07:37.203Z,45.70
2023-03-03T08:08:37.112Z,49.20
2023-03-03T08:09:37.205Z,44.30
2023-03-03T08:10:37.083Z,49.30
2023-03-03T08:11:37.038Z,44.50
2023-03-03T08:12:36.963Z,47.90
2023-03-03T08:13:37.078Z,46.50
2023-03-03T08:14:36.933Z,44.40
2023-03-03T08:16:01.428Z,49.50
2023-03-03T08:16:36.902Z,47.00
2023-03-03T08:17:37.067Z,46.30
2023-03-03T08:18:36.861Z,47.50
2023-03-03T08:19:36.968Z,47.20
2023-03-03T08:20:36.844Z,48.50
2023-03-03T08:21:36.960Z,47.80
2023-03-03T08:22:36.816Z,51.60
2023-03-03T08:23:36.938Z,45.60
2023-03-03T08:24:38.500Z,47.40
2023-03-03T08:25:36.876Z,50.80
2023-03-03T08:26:36.765Z,48.40
2023-03-03T08:27:37.991Z,42.10
2023-03-03T08:28:36.769Z,43.50
2023-03-03T08:29:36.942Z,48.70
2023-03-03T08:30:36.703Z,45.90
2023-03-03T08:31:41.941Z,52.10
2023-03-03T08:32:36.766Z,53.20
2023-03-03T08:33:36.861Z,49.40
2023-03-03T08:34:36.659Z,46.00
2023-03-03T08:35:36.815Z,47.00
2023-03-03T08:36:36.638Z,46.10
2023-03-03T08:37:36.678Z,45.90
2023-03-03T08:38:36.599Z,46.00
2023-03-03T08:39:36.773Z,50.40
2023-03-03T08:40:36.605Z,46.70
2023-03-03T08:41:36.651Z,47.40
2023-03-03T08:42:36.539Z,48.10
2023-03-03T08:43:36.695Z,47.40
2023-03-03T08:44:36.517Z,47.30
2023-03-03T08:45:36.719Z,49.30
2023-03-03T08:46:36.557Z,46.40
2023-03-03T08:47:36.566Z,48.80
2023-03-03T08:48:36.468Z,46.20
2023-03-03T08:49:37.517Z,47.50
2023-03-03T08:50:36.452Z,48.60
2023-03-03T08:51:45.278Z,48.90
2023-03-03T08:52:36.440Z,47.20
2023-03-03T08:53:37.592Z,49.40
2023-03-03T08:54:36.422Z,45.10
2023-03-03T08:56:45.886Z,46.90
2023-03-03T08:57:45.724Z,46.80
2023-03-03T08:59:06.801Z,52.50
2023-03-03T08:59:45.653Z,49.20
2023-03-03T09:00:48.869Z,50.80
2023-03-03T09:01:45.679Z,47.70
2023-03-03T09:02:45.747Z,45.90
2023-03-03T09:03:45.613Z,49.00
2023-03-03T09:04:45.873Z,49.50
2023-03-03T09:05:45.697Z,49.40
2023-03-03T09:06:47.778Z,48.30
2023-03-03T09:07:47.842Z,42.40
2023-03-03T09:08:45.746Z,44.70
2023-03-03T09:09:45.526Z,46.20
2023-03-03T09:10:45.625Z,43.30
2023-03-03T09:11:45.500Z,43.20
2023-03-03T09:12:45.622Z,45.10
2023-03-03T09:13:45.467Z,43.40
2023-03-03T09:14:45.544Z,47.90
2023-03-03T09:15:45.603Z,43.40
2023-03-03T09:16:45.616Z,50.30
2023-03-03T09:17:45.405Z,42.80
2023-03-03T09:18:45.564Z,44.60
2023-03-03T09:19:45.403Z,44.90
2023-03-03T09:20:45.531Z,45.40
2023-03-03T09:21:45.354Z,42.00
2023-03-03T09:22:47.602Z,41.00
2023-03-03T09:23:45.332Z,40.00
2023-03-03T09:24:45.472Z,41.20
2023-03-03T09:25:45.306Z,41.80
2023-03-03T09:26:45.455Z,44.80
2023-03-03T09:27:45.289Z,44.50
2023-03-03T09:28:45.443Z,39.50
2023-03-03T09:29:45.243Z,44.60
2023-03-03T09:30:45.273Z,39.80
2023-03-03T09:31:45.243Z,40.70
2023-03-03T09:32:45.437Z,41.10
2023-03-03T09:33:45.214Z,44.30
2023-03-03T09:34:45.342Z,42.00
2023-03-03T09:35:45.240Z,42.20
2023-03-03T09:36:45.281Z,44.40
2023-03-03T09:37:45.212Z,40.40
2023-03-03T09:38:45.269Z,44.20
2023-03-03T09:39:45.111Z,39.50
2023-03-03T09:40:45.181Z,41.20
2023-03-03T09:41:45.089Z,42.50
2023-03-03T09:42:45.201Z,41.70
2023-03-03T09:43:45.068Z,39.10
2023-03-03T09:44:45.179Z,43.10
2023-03-03T09:45:45.049Z,41.00
2023-03-03T09:47:54.438Z,38.50
2023-03-03T09:48:54.219Z,41.20
2023-03-03T09:49:57.696Z,40.30
2023-03-03T09:50:54.210Z,46.40
2023-03-03T09:51:55.412Z,40.50
2023-03-03T09:52:54.182Z,38.90
2023-03-03T09:53:54.237Z,46.70
2023-03-03T09:54:54.312Z,44.60
2023-03-03T09:56:17.240Z,45.50
2023-03-03T09:56:54.119Z,46.20
2023-03-03T09:58:08.287Z,42.10
2023-03-03T09:58:55.122Z,46.90
2023-03-03T09:59:54.325Z,45.50
2023-03-03T10:00:54.090Z,44.50
2023-03-03T10:01:54.281Z,40.70
2023-03-03T10:02:56.063Z,42.60
2023-03-03T10:03:54.173Z,42.90
2023-03-03T10:04:54.021Z,45.00
2023-03-03T10:05:54.162Z,41.20
2023-03-03T10:06:54.016Z,42.60
2023-03-03T10:08:15.076Z,42.10
2023-03-03T10:08:53.985Z,41.40
2023-03-03T10:09:54.346Z,40.80
2023-03-03T10:10:53.950Z,40.20
2023-03-03T10:11:54.061Z,39.90
2023-03-03T10:12:53.927Z,42.20
2023-03-03T10:13:54.019Z,36.10
2023-03-03T10:14:53.943Z,36.60
2023-03-03T10:15:54.032Z,40.40
2023-03-03T10:16:54.154Z,42.70
2023-03-03T10:17:53.958Z,34.80
2023-03-03T10:18:53.858Z,40.20
2023-03-03T10:20:14.985Z,42.50
2023-03-03T10:20:54.283Z,41.10
2023-03-03T10:21:53.999Z,39.70
2023-03-03T10:22:53.807Z,36.90
2023-03-03T10:23:57.663Z,41.30
2023-03-03T10:24:54.013Z,37.30
2023-03-03T10:25:53.906Z,39.90
2023-03-03T10:27:09.941Z,43.80
2023-03-03T10:27:54.727Z,43.70
2023-03-03T10:28:53.807Z,41.30
2023-03-03T10:29:53.687Z,41.60
2023-03-03T10:31:04.808Z,43.30
2023-03-03T10:31:54.921Z,40.00
2023-03-03T10:32:53.795Z,36.80
2023-03-03T10:33:53.914Z,41.00
2023-03-03T10:34:53.626Z,42.00
2023-03-03T10:36:06.161Z,41.50
2023-03-03T10:36:54.617Z,34.90
2023-03-03T10:37:53.717Z,40.30
2023-03-03T10:38:53.567Z,36.40
2023-03-03T10:39:53.664Z,38.60
2023-03-03T10:40:53.551Z,39.00
2023-03-03T10:41:53.689Z,37.90
2023-03-03T10:42:53.545Z,38.30
2023-03-03T10:43:53.615Z,39.80
2023-03-03T10:44:53.525Z,38.70
2023-03-03T10:45:53.690Z,38.90
2023-03-03T10:46:53.465Z,39.20
2023-03-03T10:47:54.622Z,32.80
2023-03-03T10:48:53.462Z,41.60
2023-03-03T10:49:53.525Z,38.30
2023-03-03T10:50:53.428Z,38.80
2023-03-03T10:51:53.563Z,34.10
2023-03-03T10:52:53.394Z,42.20
2023-03-03T10:53:55.598Z,38.40
2023-03-03T10:54:53.404Z,37.50
2023-03-03T10:55:54.555Z,36.00
2023-03-03T10:56:54.018Z,36.80
2023-03-03T10:57:53.365Z,39.70
2023-03-03T10:58:53.411Z,39.30
2023-03-03T10:59:54.444Z,37.00
2023-03-03T11:00:53.383Z,36.70
2023-03-03T11:01:53.444Z,37.70
2023-03-03T11:02:53.263Z,31.80
2023-03-03T11:03:53.387Z,35.30
2023-03-03T11:04:53.277Z,33.40
2023-03-03T11:05:53.415Z,35.60
2023-03-03T11:06:53.293Z,34.10
2023-03-03T11:07:53.255Z,36.00
2023-03-03T11:08:53.184Z,34.90
2023-03-03T11:09:53.275Z,37.10
2023-03-03T11:10:53.160Z,36.90
2023-03-03T11:11:53.338Z,39.40
2023-03-03T11:12:53.159Z,35.70
2023-03-03T11:13:53.262Z,40.50
2023-03-03T11:14:53.098Z,38.70
2023-03-03T11:15:53.287Z,34.20
2023-03-03T11:16:53.113Z,35.50
2023-03-03T11:17:53.124Z,35.50
2023-03-03T11:18:53.066Z,33.00
2023-03-03T11:19:53.155Z,34.30
2023-03-03T11:20:53.020Z,30.80
2023-03-03T11:21:53.193Z,31.90
2023-03-03T11:22:52.995Z,33.60
2023-03-03T11:23:53.136Z,35.40
2023-03-03T11:24:53.009Z,34.40
2023-03-03T11:25:53.082Z,33.10
2023-03-03T11:26:52.951Z,31.60
2023-03-03T11:27:53.007Z,34.20
2023-03-03T11:28:52.916Z,35.80
2023-03-03T11:29:53.037Z,31.20
2023-03-03T11:30:53.001Z,33.50
2023-03-03T11:31:53.148Z,31.50
2023-03-03T11:32:52.874Z,32.50
2023-03-03T11:33:53.006Z,31.30
2023-03-03T11:34:52.845Z,29.50
2023-03-03T11:35:52.978Z,31.40
2023-03-03T11:36:52.827Z,30.70
2023-03-03T11:37:52.877Z,31.90
2023-03-03T11:38:52.785Z,28.60
2023-03-03T11:39:52.917Z,29.90
2023-03-03T11:40:52.758Z,31.60
2023-03-03T11:41:52.952Z,33.80
2023-03-03T11:42:52.758Z,30.80
2023-03-03T11:43:52.839Z,31.30
2023-03-03T11:44:52.710Z,28.40
2023-03-03T11:45:52.852Z,32.50
2023-03-03T11:46:52.691Z,33.30
2023-03-03T11:47:52.750Z,29.60
2023-03-03T11:48:52.672Z,29.80
2023-03-03T11:49:52.799Z,33.70
2023-03-03T11:50:52.643Z,28.30
2023-03-03T11:51:52.826Z,31.10
2023-03-03T11:52:52.598Z,31.50
2023-03-03T11:53:52.660Z,29.40
2023-03-03T11:54:52.602Z,31.50
2023-03-03T11:55:52.688Z,31.30
2023-03-03T11:56:52.554Z,32.30
2023-03-03T11:57:52.627Z,32.30
2023-03-03T11:58:52.516Z,30.60
2023-03-03T11:59:53.697Z,26.30
2023-03-03T12:00:52.506Z,27.00
2023-03-03T12:01:52.699Z,27.90
2023-03-03T12:02:52.519Z,30.90
2023-03-03T12:03:52.571Z,30.10
2023-03-03T12:04:52.436Z,27.70
2023-03-03T12:05:53.543Z,33.00
2023-03-03T12:06:52.427Z,30.00
2023-03-03T12:07:52.505Z,30.50
2023-03-03T12:08:52.400Z,30.00
2023-03-03T12:09:52.556Z,32.60
2023-03-03T12:10:52.365Z,31.20
2023-03-03T12:11:54.147Z,31.80
2023-03-03T12:12:52.349Z,31.50
2023-03-03T12:13:52.412Z,31.00
2023-03-03T12:14:52.327Z,31.80
2023-03-03T12:15:52.494Z,32.80
2023-03-03T12:16:52.282Z,29.70
2023-03-03T12:17:52.386Z,34.00
2023-03-03T12:18:52.269Z,33.00
2023-03-03T12:19:53.446Z,32.20
2023-03-03T12:20:52.226Z,35.10
2023-03-03T12:21:52.348Z,33.30
2023-03-03T12:23:05.864Z,31.50
2023-03-03T12:23:53.193Z,29.70
2023-03-03T12:24:52.354Z,31.00
2023-03-03T12:25:52.157Z,31.10
2023-03-03T12:26:53.221Z,30.10
2023-03-03T12:27:52.136Z,25.40
2023-03-03T12:28:52.219Z,31.20
2023-03-03T12:29:52.125Z,30.00
2023-03-03T12:30:52.272Z,32.10
2023-03-03T12:31:52.091Z,26.80
2023-03-03T12:32:52.211Z,31.40
2023-03-03T12:33:52.068Z,29.30
2023-03-03T12:34:52.128Z,27.60
2023-03-03T12:35:52.070Z,27.50
2023-03-03T12:36:52.067Z,25.90
2023-03-03T12:37:52.006Z,30.70
2023-03-03T12:38:53.143Z,28.30
2023-03-03T12:39:51.987Z,27.20
2023-03-03T12:40:52.148Z,26.70
2023-03-03T12:41:51.968Z,28.60
2023-03-03T12:42:53.109Z,28.30
2023-03-03T12:43:51.941Z,30.50
2023-03-03T12:44:54.037Z,28.80
2023-03-03T12:45:51.926Z,28.40
2023-03-03T12:46:52.122Z,30.30
2023-03-03T12:47:51.891Z,29.90
2023-03-03T12:48:51.971Z,32.00
2023-03-03T12:50:01.147Z,27.10
2023-03-03T12:50:52.831Z,29.00
2023-03-03T12:51:51.885Z,25.10
2023-03-03T12:52:51.802Z,26.60
2023-03-03T12:53:51.990Z,27.20
2023-03-03T12:54:51.779Z,27.80
2023-03-03T12:55:51.956Z,29.00
2023-03-03T12:56:51.751Z,27.90
2023-03-03T12:57:51.780Z,28.30
2023-03-03T12:58:51.727Z,26.70
2023-03-03T12:59:51.873Z,26.20